createdAt,value
2018-08-06T00:02:29.224Z,2.20
2018-08-06T00:05:01.661Z,1.80
2018-08-06T00:07:34.376Z,1.60
2018-08-06T00:10:09.992Z,1.83
2018-08-06T00:12:42.499Z,2.00
2018-08-06T00:15:14.908Z,2.00
2018-08-06T00:17:47.309Z,1.80
2018-08-06T09:16:14.529Z,1.75
2018-08-06T09:18:46.952Z,1.70
2018-08-06T09:21:19.697Z,1.57
2018-08-06T09:23:52.049Z,1.90
2018-08-06T09:26:24.484Z,1.70
2018-08-06T09:28:56.894Z,2.10
2018-08-06T09:31:29.415Z,1.60
2018-08-06T09:34:02.195Z,1.70
2018-08-06T09:36:34.536Z,1.87
2018-08-06T09:39:08.760Z,1.67
2018-08-06T09:41:41.228Z,1.90
2018-08-06T09:44:13.623Z,1.90
2018-08-06T09:46:46.029Z,1.90
2018-08-06T09:49:18.404Z,2.10
2018-08-06T09:51:50.808Z,1.87
2018-08-06T09:54:23.185Z,1.67
2018-08-06T09:56:55.972Z,1.62
2018-08-06T09:59:28.397Z,2.00
2018-08-06T10:02:01.077Z,2.00
2018-08-06T10:04:33.681Z,1.85
2018-08-06T10:07:06.163Z,1.90
2018-08-06T10:09:38.536Z,1.70
2018-08-06T10:12:10.940Z,1.70
2018-08-06T10:14:43.696Z,2.00
2018-08-06T10:17:16.490Z,1.90
2018-08-06T10:19:48.864Z,1.60
2018-08-06T10:22:21.269Z,1.87
2018-08-06T10:24:53.648Z,1.67
2018-08-06T10:27:26.325Z,1.70
2018-08-06T10:29:58.544Z,1.62
2018-08-06T10:32:31.249Z,1.75
2018-08-06T10:35:04.104Z,1.60
2018-08-06T10:37:36.531Z,1.50
2018-08-06T10:40:10.004Z,1.90
2018-08-06T10:42:42.503Z,1.90
2018-08-06T10:45:14.917Z,1.80
2018-08-06T10:47:47.340Z,1.70
2018-08-06T10:50:20.334Z,2.00
2018-08-06T10:52:53.070Z,1.70
2018-08-06T10:55:25.488Z,1.80
2018-08-06T10:57:58.248Z,1.70
2018-08-06T11:00:30.680Z,1.55
2018-08-06T11:03:03.092Z,1.70
2018-08-06T11:05:35.591Z,1.52
2018-08-06T11:08:07.823Z,1.72
2018-08-06T11:10:41.057Z,1.70
2018-08-06T11:13:13.733Z,1.70
2018-08-06T11:15:46.513Z,2.00
2018-08-06T11:18:18.934Z,1.60
2018-08-06T11:20:51.345Z,1.75
2018-08-06T11:23:23.793Z,1.80
2018-08-06T11:25:56.214Z,1.70
2018-08-06T11:28:28.671Z,1.70
2018-08-06T11:31:01.332Z,1.50
2018-08-06T11:33:33.557Z,1.67
2018-08-06T11:36:06.005Z,1.87
2018-08-06T11:38:38.392Z,1.67
2018-08-06T11:41:10.860Z,1.77
2018-08-06T11:43:43.272Z,2.00
2018-08-06T11:46:15.681Z,1.65
2018-08-06T11:48:48.717Z,1.70
2018-08-06T11:51:21.085Z,1.70
2018-08-06T11:53:53.621Z,1.50
2018-08-06T11:56:26.083Z,1.82
2018-08-06T11:58:58.678Z,1.60
2018-08-06T12:01:31.441Z,1.60
2018-08-06T12:04:03.837Z,1.50
2018-08-06T12:06:36.258Z,1.40
2018-08-06T12:09:08.772Z,2.02
2018-08-06T12:11:41.197Z,1.50
2018-08-06T12:14:13.926Z,1.50
2018-08-06T12:16:46.348Z,1.30
2018-08-06T12:19:18.746Z,1.50
2018-08-06T12:21:51.157Z,1.55
2018-08-06T12:24:23.907Z,1.40
2018-08-06T12:26:56.314Z,1.40
2018-08-06T12:29:28.717Z,1.50
2018-08-06T12:32:01.201Z,1.50
2018-08-06T12:34:33.615Z,1.40
2018-08-06T12:37:06.256Z,1.80
2018-08-06T12:39:38.664Z,1.75
2018-08-06T12:42:11.105Z,1.60
2018-08-06T12:44:43.534Z,1.70
2018-08-06T12:47:16.187Z,1.95
2018-08-06T12:49:48.596Z,1.50
2018-08-06T12:52:21.009Z,1.65
2018-08-06T12:54:53.431Z,1.42
2018-08-06T12:57:25.836Z,2.10
2018-08-06T12:59:58.557Z,1.75
2018-08-06T13:02:30.985Z,1.70
2018-08-06T13:05:03.738Z,1.75
2018-08-06T13:07:36.089Z,1.80
2018-08-06T13:10:08.760Z,1.70
2018-08-06T13:12:41.541Z,1.67
2018-08-06T13:15:13.969Z,1.82
2018-08-06T13:17:46.697Z,1.82
2018-08-06T13:20:19.122Z,1.98
2018-08-06T13:22:51.645Z,1.35
2018-08-06T13:25:24.103Z,1.67
2018-08-06T13:27:56.474Z,1.80
2018-08-06T13:30:29.128Z,1.87
2018-08-06T13:33:01.545Z,1.70
2018-08-06T13:35:33.946Z,1.70
2018-08-06T13:38:06.667Z,1.60
2018-08-06T13:40:39.079Z,1.70
2018-08-06T13:43:11.493Z,2.02
2018-08-06T13:45:43.874Z,2.12
2018-08-06T13:48:16.545Z,1.90
2018-08-06T13:50:49.269Z,1.90
2018-08-06T13:53:21.757Z,1.60
2018-08-06T13:55:54.124Z,1.80
2018-08-06T13:58:26.792Z,1.72
2018-08-06T14:00:59.184Z,1.75
2018-08-06T14:03:31.640Z,1.60
2018-08-06T14:06:04.053Z,1.72
2018-08-06T14:08:36.772Z,1.70
2018-08-06T14:11:09.217Z,1.60
2018-08-06T14:13:41.565Z,2.10
2018-08-06T14:16:14.214Z,1.87
2018-08-06T14:18:46.648Z,2.30
2018-08-06T14:21:19.018Z,1.57
2018-08-06T14:23:51.437Z,2.05
2018-08-06T14:26:23.834Z,1.98
2018-08-06T14:28:56.347Z,1.80
2018-08-06T14:31:28.797Z,1.85
2018-08-06T14:34:01.428Z,1.80
2018-08-06T14:36:34.152Z,1.77
2018-08-06T14:39:08.289Z,1.75
2018-08-06T14:41:41.002Z,1.67
2018-08-06T14:44:13.471Z,1.50
2018-08-06T14:46:45.805Z,1.90
2018-08-06T14:49:18.225Z,1.75
2018-08-06T14:51:50.693Z,1.80
2018-08-06T14:54:23.013Z,1.75
2018-08-06T14:56:55.469Z,1.80
2018-08-06T14:59:27.883Z,1.95
2018-08-06T15:02:00.285Z,1.65
2018-08-06T15:04:32.686Z,1.77
2018-08-06T15:07:05.076Z,1.55
2018-08-06T15:09:38.013Z,1.87
2018-08-06T15:12:10.421Z,1.75
2018-08-06T15:14:42.841Z,1.85
2018-08-06T15:17:15.258Z,1.75
2018-08-06T15:19:47.685Z,1.80
2018-08-06T15:22:20.082Z,1.90
2018-08-06T15:24:52.489Z,1.85
2018-08-06T15:27:24.880Z,2.02
2018-08-06T15:29:57.325Z,1.95
2018-08-06T15:32:29.708Z,1.70
2018-08-06T15:35:02.134Z,1.72
2018-08-06T15:37:34.773Z,1.60
2018-08-06T15:40:12.166Z,1.77
2018-08-06T15:42:44.566Z,2.00
2018-08-06T15:45:16.964Z,1.92
2018-08-06T15:47:49.350Z,1.87
2018-08-06T15:50:22.008Z,1.60
2018-08-06T15:52:54.401Z,2.05
2018-08-06T15:55:26.804Z,1.80
2018-08-06T15:57:59.180Z,2.02
2018-08-06T16:00:31.608Z,1.90
2018-08-06T16:03:04.034Z,2.00
2018-08-06T16:05:36.452Z,1.80
2018-08-06T16:08:08.853Z,1.62
2018-08-06T16:10:41.249Z,2.20
2018-08-06T16:13:13.622Z,1.92
2018-08-06T16:15:46.306Z,1.72
2018-08-06T16:18:18.768Z,1.62
2018-08-06T16:20:51.159Z,2.00
2018-08-06T16:23:23.689Z,1.90
2018-08-06T16:25:56.387Z,1.92
2018-08-06T16:28:28.826Z,1.90
2018-08-06T16:31:01.267Z,1.72
2018-08-06T16:33:33.619Z,1.77
2018-08-06T16:36:06.046Z,2.17
2018-08-06T16:38:38.497Z,1.70
2018-08-06T16:41:11.193Z,2.17
2018-08-06T16:43:43.577Z,2.10
2018-08-06T16:46:15.985Z,1.82
2018-08-06T16:48:48.395Z,1.77
2018-08-06T16:51:21.014Z,1.72
2018-08-06T16:53:53.445Z,2.50
2018-08-06T16:56:25.920Z,2.58
2018-08-06T16:58:58.316Z,2.00
2018-08-06T17:01:30.970Z,1.95
2018-08-06T17:04:03.650Z,1.98
2018-08-06T17:06:36.031Z,1.80
2018-08-06T17:09:08.444Z,1.67
2018-08-06T17:11:41.127Z,1.70
2018-08-06T17:14:13.517Z,1.80
2018-08-06T17:16:45.915Z,2.10
2018-08-06T17:19:18.337Z,1.92
2018-08-06T17:21:50.730Z,1.60
2018-08-06T17:24:23.145Z,2.05
2018-08-06T17:26:55.532Z,1.80
2018-08-06T17:29:28.195Z,2.00
2018-08-06T17:32:00.565Z,1.90
2018-08-06T17:34:32.956Z,1.80
2018-08-06T17:37:05.397Z,2.10
2018-08-06T17:39:37.872Z,1.90
2018-08-06T17:42:10.311Z,1.90
2018-08-06T17:44:42.750Z,2.10
2018-08-06T17:47:15.122Z,2.20
2018-08-06T17:49:47.825Z,2.08
2018-08-06T17:52:20.508Z,2.20
2018-08-06T17:54:52.921Z,2.00
2018-08-06T17:57:25.805Z,2.00
2018-08-06T17:59:58.210Z,2.02
2018-08-06T18:02:30.600Z,1.82
2018-08-06T18:05:03.557Z,2.05
2018-08-06T18:07:36.269Z,2.10
2018-08-06T18:10:09.404Z,2.02
2018-08-06T18:12:41.815Z,1.92
2018-08-06T18:15:14.396Z,2.02
2018-08-06T18:17:46.791Z,1.92
2018-08-06T18:20:19.189Z,2.20
2018-08-06T18:22:51.877Z,2.15
2018-08-06T18:25:24.269Z,2.20
2018-08-06T18:27:56.646Z,2.37
2018-08-06T18:30:29.094Z,2.20
2018-08-06T18:33:01.586Z,2.17
2018-08-06T18:35:34.252Z,2.02
2018-08-06T18:38:06.635Z,2.25
2018-08-06T18:40:39.094Z,1.90
2018-08-06T18:43:11.699Z,2.10
2018-08-06T18:45:44.033Z,2.05
2018-08-06T18:48:16.515Z,2.10
2018-08-06T18:50:49.007Z,2.52
2018-08-06T18:53:21.713Z,2.50
2018-08-06T18:55:54.104Z,2.40
2018-08-06T18:58:26.518Z,2.08
2018-08-06T19:00:58.900Z,2.30
2018-08-06T19:03:31.324Z,2.10
2018-08-06T19:06:03.752Z,2.08
2018-08-06T19:08:36.145Z,2.37
2018-08-06T19:11:08.576Z,2.20
2018-08-06T19:13:40.948Z,2.00
2018-08-06T19:16:13.733Z,2.40
2018-08-06T19:18:46.112Z,2.30
2018-08-06T19:21:18.575Z,2.10
2018-08-06T19:23:50.991Z,2.55
2018-08-06T19:26:23.420Z,2.90
2018-08-06T19:28:56.100Z,2.33
2018-08-06T19:31:28.629Z,2.33
2018-08-06T19:34:01.266Z,2.35
2018-08-06T19:36:33.761Z,2.52
2018-08-06T19:39:07.902Z,2.40
2018-08-06T19:41:40.711Z,2.50
2018-08-06T19:44:13.197Z,2.50
2018-08-06T19:46:45.612Z,2.65
2018-08-06T19:49:18.016Z,2.65
2018-08-06T19:51:50.729Z,2.50
2018-08-06T19:54:23.148Z,2.85
2018-08-06T19:56:55.569Z,2.95
